Time;durP1;ratioP1;P1;durP2;ratioP2;P2;SDS_P1;SDS_P2;PMS_P1;PMS_P2;Temp;Humidity;BMP_temperature;BMP_pressure;BME280_temperature;BME280_humidity;BME280_pressure;Samples;Min_cycle;Max_cycle;Signal;HPM_P1;HPM_P2
2023/01/26 00:01:17;;;;;;;115.15;32.25;;;;;;;-143.48;95.33;118439.88;5094355;28;20024;-33
2023/01/26 00:03:43;;;;;;;111.63;29.45;;;;;;;-143.48;94.56;118439.88;5094071;28;20062;-35
2023/01/26 00:06:13;;;;;;;111.70;31.10;;;;;;;-143.48;94.92;118439.88;5094009;28;20072;-34
2023/01/26 00:08:44;;;;;;;108.00;30.02;;;;;;;-143.48;95.35;118439.88;5076388;28;20023;-34
2023/01/26 00:11:11;;;;;;;120.72;31.98;;;;;;;-143.48;94.66;118439.88;5094456;28;20100;-33
2023/01/26 00:13:37;;;;;;;115.45;30.10;;;;;;;-143.48;94.58;118439.88;5094460;28;20034;-33
2023/01/26 00:16:03;;;;;;;109.78;30.58;;;;;;;-143.48;94.67;118439.88;5075730;28;20472;-33
2023/01/26 00:18:30;;;;;;;108.07;31.35;;;;;;;-143.48;93.81;118439.88;5094106;28;20463;-33
2023/01/26 00:20:56;;;;;;;117.60;31.95;;;;;;;-143.48;95.01;118439.88;5093727;28;20047;-33
2023/01/26 00:23:22;;;;;;;102.43;29.85;;;;;;;-143.48;94.28;118439.88;5093988;28;20482;-33
2023/01/26 00:25:47;;;;;;;107.00;30.52;;;;;;;-143.48;94.05;118439.88;5093136;28;20024;-33
2023/01/26 00:28:12;;;;;;;119.10;30.95;;;;;;;-143.48;95.31;118439.88;5093921;28;20024;-33
2023/01/26 00:30:38;;;;;;;117.97;31.10;;;;;;;-143.48;95.20;118439.88;5093859;28;20028;-33
2023/01/26 00:33:03;;;;;;;116.72;32.08;;;;;;;-143.48;94.87;118439.88;5093641;28;20062;-33
2023/01/26 00:35:28;;;;;;;121.38;31.45;;;;;;;-143.48;94.54;118439.88;5094104;28;20024;-33
2023/01/26 00:37:54;;;;;;;113.97;30.45;;;;;;;-143.48;94.30;118439.88;5093866;28;20077;-33
2023/01/26 00:40:19;;;;;;;119.35;31.50;;;;;;;-143.48;94.97;118439.88;5093528;28;20055;-32
2023/01/26 00:42:45;;;;;;;118.07;31.85;;;;;;;-143.48;95.10;118439.88;5093726;28;20051;-33
2023/01/26 00:45:10;;;;;;;116.50;30.30;;;;;;;-143.48;95.10;118439.88;5094042;28;20032;-33
2023/01/26 00:47:35;;;;;;;109.45;30.15;;;;;;;-143.48;95.26;118439.88;5093489;28;20021;-34
2023/01/26 00:50:01;;;;;;;109.50;30.65;;;;;;;-143.48;94.80;118439.88;5093668;28;20110;-33
2023/01/26 00:52:26;;;;;;;106.82;30.17;;;;;;;-143.48;95.39;118439.88;5093380;28;20089;-33
2023/01/26 00:54:51;;;;;;;105.55;30.40;;;;;;;-143.48;94.98;118439.88;5093378;28;20048;-34
2023/01/26 00:57:16;;;;;;;116.43;32.58;;;;;;;-143.48;95.12;118439.88;5093605;28;20471;-33
2023/01/26 00:59:42;;;;;;;103.45;29.83;;;;;;;-143.48;94.95;118439.88;5093565;28;20016;-33
2023/01/26 01:02:07;;;;;;;108.00;29.60;;;;;;;-143.48;94.49;118439.88;5093315;28;20420;-33
2023/01/26 01:04:32;;;;;;;107.90;29.92;;;;;;;-143.48;94.43;118439.88;5093569;28;20547;-33
2023/01/26 01:06:58;;;;;;;97.60;28.60;;;;;;;-143.48;94.58;118439.88;5093083;28;20056;-33
2023/01/26 01:09:24;;;;;;;100.90;30.25;;;;;;;-143.48;94.28;118439.88;5093467;28;20023;-33
2023/01/26 01:11:49;;;;;;;94.43;28.33;;;;;;;-143.48;94.39;118439.88;5093472;28;20034;-33
2023/01/26 01:14:14;;;;;;;95.10;27.67;;;;;;;-143.48;94.36;118439.88;5093382;28;20494;-33
2023/01/26 01:16:40;;;;;;;84.15;25.55;;;;;;;-143.48;93.86;118439.88;5093503;28;20112;-33
2023/01/26 01:19:06;;;;;;;88.53;25.88;;;;;;;-143.48;93.98;118439.88;5093172;28;20064;-33
2023/01/26 01:21:32;;;;;;;85.22;25.33;;;;;;;-143.48;94.21;118439.88;5093416;28;20078;-33
2023/01/26 01:23:58;;;;;;;91.22;26.88;;;;;;;-143.48;94.15;118439.88;5093433;28;20074;-33
2023/01/26 01:26:23;;;;;;;83.18;25.05;;;;;;;-143.48;94.01;118439.88;5093377;28;20405;-33
2023/01/26 01:28:53;;;;;;;86.10;25.98;;;;;;;-143.48;94.40;118439.88;5093130;28;20024;-34
2023/01/26 01:31:18;;;;;;;90.15;26.02;;;;;;;-143.48;93.83;118439.88;5092949;28;20054;-33
2023/01/26 01:33:44;;;;;;;83.35;25.25;;;;;;;-143.48;93.18;118439.88;5093029;28;20028;-33
2023/01/26 01:36:12;;;;;;;83.15;26.02;;;;;;;-143.48;93.32;118439.88;5094586;28;20113;-33
2023/01/26 01:38:37;;;;;;;80.30;24.45;;;;;;;-143.48;93.62;118439.88;5096829;28;20081;-33
2023/01/26 01:41:03;;;;;;;81.85;23.85;;;;;;;-143.48;93.61;118439.88;5096995;28;20024;-34
2023/01/26 01:43:29;;;;;;;90.07;26.15;;;;;;;-143.48;93.42;118439.88;5097023;28;20031;-32
2023/01/26 01:45:54;;;;;;;90.85;25.30;;;;;;;-143.48;93.70;118439.88;5096546;28;20425;-33
2023/01/26 01:48:48;;;;;;;77.10;25.08;;;;;;;-143.48;93.83;118439.88;5096619;28;20020;-33
2023/01/26 01:51:26;;;;;;;78.80;23.00;;;;;;;-143.48;93.69;118439.88;5096770;28;20077;-33
2023/01/26 01:53:55;;;;;;;77.82;23.23;;;;;;;-143.48;94.17;118439.88;5096826;28;20023;-33
2023/01/26 01:56:24;;;;;;;81.53;23.73;;;;;;;-143.48;93.79;118439.88;5097513;28;20032;-32
2023/01/26 01:58:54;;;;;;;83.78;25.10;;;;;;;-143.48;93.98;118439.88;5096334;28;20024;-33
2023/01/26 02:01:19;;;;;;;85.40;24.95;;;;;;;-143.48;93.09;118439.88;5096537;28;20024;-33
2023/01/26 02:03:48;;;;;;;83.88;24.30;;;;;;;-143.48;94.19;118439.88;5096368;28;20532;-33
2023/01/26 02:06:16;;;;;;;75.18;24.13;;;;;;;-143.48;94.13;118439.88;5096244;28;20040;-32
2023/01/26 02:08:48;;;;;;;82.18;24.33;;;;;;;-143.48;93.81;118439.88;5096236;28;20463;-33
2023/01/26 02:11:19;;;;;;;80.63;24.50;;;;;;;-143.48;93.60;118439.88;5096122;28;20028;-33
2023/01/26 02:13:47;;;;;;;70.72;24.15;;;;;;;-143.48;93.48;118439.88;5096376;28;20273;-33
2023/01/26 02:16:13;;;;;;;80.95;24.85;;;;;;;-143.48;93.21;118439.88;5095858;28;20099;-33
2023/01/26 02:18:39;;;;;;;75.80;23.45;;;;;;;-143.48;93.70;118439.88;5096065;28;20114;-34
2023/01/26 02:21:10;;;;;;;77.85;25.17;;;;;;;-143.48;93.74;118439.88;5096052;28;20016;-33
2023/01/26 02:23:49;;;;;;;74.20;25.23;;;;;;;-143.48;94.67;118439.88;5095903;28;20028;-33
2023/01/26 02:26:21;;;;;;;78.47;23.48;;;;;;;-143.48;94.54;118439.88;5096751;28;20452;-33
2023/01/26 02:28:47;;;;;;;76.07;23.80;;;;;;;-143.48;94.71;118439.88;5095848;28;20483;-33
2023/01/26 02:31:13;;;;;;;82.05;24.00;;;;;;;-143.48;94.83;118439.88;5096268;28;20075;-33
2023/01/26 02:33:39;;;;;;;72.85;22.10;;;;;;;-143.48;95.29;118439.88;5095796;28;20497;-33
2023/01/26 02:36:06;;;;;;;73.15;22.35;;;;;;;-143.48;95.45;118439.88;5096024;28;20024;-33
2023/01/26 02:38:54;;;;;;;77.68;24.40;;;;;;;-143.48;95.15;118439.88;5095844;28;20463;-33
2023/01/26 02:44:07;;;;;;;66.13;21.45;;;;;;;-143.48;95.44;118439.88;5096451;28;20406;-33
2023/01/26 02:46:32;;;;;;;71.75;21.73;;;;;;;-143.48;95.45;118439.88;5095557;28;20020;-33
2023/01/26 02:51:42;;;;;;;69.25;22.65;;;;;;;-143.48;95.26;118439.88;5080301;28;20051;-33
2023/01/26 02:54:07;;;;;;;77.82;24.42;;;;;;;-143.48;95.39;118439.88;5095270;28;20028;-32
2023/01/26 02:56:37;;;;;;;70.03;21.65;;;;;;;-143.48;95.42;118439.88;5095872;28;20028;-34
2023/01/26 02:59:02;;;;;;;74.90;23.58;;;;;;;-143.48;95.35;118439.88;5095989;28;20031;-33
2023/01/26 03:01:27;;;;;;;72.30;22.65;;;;;;;-143.48;95.44;118439.88;5095590;28;20019;-33
2023/01/26 03:03:53;;;;;;;70.57;22.60;;;;;;;-143.48;95.54;118439.88;5095500;28;20020;-33
2023/01/26 03:06:18;;;;;;;73.38;21.90;;;;;;;-143.48;94.82;118439.88;5095175;28;20055;-32
2023/01/26 03:08:43;;;;;;;65.57;22.25;;;;;;;-143.48;94.90;118439.88;5095065;28;20036;-33
2023/01/26 03:11:09;;;;;;;71.38;21.90;;;;;;;-143.48;94.78;118439.88;5094988;28;20028;-34
2023/01/26 03:13:34;;;;;;;64.03;21.33;;;;;;;-143.48;95.09;118439.88;5095249;28;20016;-33
2023/01/26 03:16:05;;;;;;;66.90;22.35;;;;;;;-143.48;95.40;118439.88;5094984;28;20466;-33
2023/01/26 03:29:28;;;;;;;60.45;20.35;;;;;;;-143.48;95.21;118439.88;5095199;28;20505;-32
2023/01/26 03:31:55;;;;;;;61.70;20.98;;;;;;;-143.48;95.08;118439.88;5094685;28;20020;-33
2023/01/26 03:34:20;;;;;;;66.63;21.05;;;;;;;-143.48;94.85;118439.88;5094625;28;20028;-33
2023/01/26 03:36:47;;;;;;;66.00;21.98;;;;;;;-143.48;94.39;118439.88;5094823;28;20039;-33
2023/01/26 03:41:06;;;;;;;58.33;20.08;;;;;;;-143.48;94.54;118439.88;5094510;28;20070;-34
2023/01/26 03:58:22;;;;;;;70.22;22.25;;;;;;;-143.48;94.98;118439.88;5094204;28;20090;-33
2023/01/26 04:00:49;;;;;;;68.00;21.67;;;;;;;-143.48;95.37;118439.88;5093172;28;20103;-33
2023/01/26 04:08:43;;;;;;;67.20;21.65;;;;;;;-143.48;95.14;118439.88;5094280;28;20047;-33
2023/01/26 04:11:08;;;;;;;63.95;21.42;;;;;;;-143.48;94.81;118439.88;5094128;28;20024;-32
2023/01/26 04:21:45;;;;;;;59.55;20.80;;;;;;;-143.48;94.68;118439.88;5094104;28;20115;-33
2023/01/26 04:24:12;;;;;;;60.67;20.52;;;;;;;-143.48;94.41;118439.88;5094021;28;20047;-33
2023/01/26 04:26:39;;;;;;;61.00;20.52;;;;;;;-143.48;94.69;118439.88;5094021;28;20027;-33
2023/01/26 04:29:07;;;;;;;64.22;21.00;;;;;;;-143.48;94.74;118439.88;5093660;28;20031;-33
2023/01/26 04:31:32;;;;;;;57.45;19.95;;;;;;;-143.48;94.22;118439.88;5093666;28;20032;-32
2023/01/26 04:33:59;;;;;;;62.42;21.33;;;;;;;-143.48;94.15;118439.88;5093834;28;20081;-33
2023/01/26 04:36:25;;;;;;;59.67;20.80;;;;;;;-143.48;94.77;118439.88;5093893;28;20023;-33
2023/01/26 04:38:50;;;;;;;61.33;20.42;;;;;;;-143.48;94.74;118439.88;5093850;28;20112;-34
2023/01/26 04:41:15;;;;;;;61.00;20.15;;;;;;;-143.48;94.92;118439.88;5075470;28;20020;-32
2023/01/26 04:43:40;;;;;;;63.75;20.95;;;;;;;-143.48;95.73;118439.88;5093488;28;20069;-34
2023/01/26 04:46:07;;;;;;;61.28;20.58;;;;;;;-143.48;95.23;118439.88;5094340;28;20031;-32
2023/01/26 04:48:34;;;;;;;59.63;20.25;;;;;;;-143.48;94.77;118439.88;5093434;28;20020;-33
2023/01/26 04:51:02;;;;;;;58.28;19.98;;;;;;;-143.48;95.08;118439.88;5058711;28;20032;-33
2023/01/26 04:53:27;;;;;;;58.22;20.02;;;;;;;-143.48;95.13;118439.88;5093709;28;20115;-33
2023/01/26 04:55:53;;;;;;;54.60;19.38;;;;;;;-143.48;94.82;118439.88;5093443;28;20478;-33
2023/01/26 04:58:18;;;;;;;53.83;18.83;;;;;;;-143.48;94.48;118439.88;5093710;28;20024;-33
2023/01/26 05:00:48;;;;;;;53.67;19.17;;;;;;;-143.48;94.03;118439.88;5093605;28;20043;-34
2023/01/26 05:03:14;;;;;;;51.30;18.48;;;;;;;-143.48;94.22;118439.88;5093968;28;20028;-33
2023/01/26 05:05:40;;;;;;;52.42;18.70;;;;;;;-143.48;94.19;118439.88;5093384;28;20126;-32
2023/01/26 05:08:05;;;;;;;55.42;19.65;;;;;;;-143.48;94.52;118439.88;5075946;28;20032;-33
2023/01/26 05:10:31;;;;;;;52.58;19.52;;;;;;;-143.48;94.36;118439.88;5075314;28;20024;-34
2023/01/26 05:12:57;;;;;;;57.88;20.08;;;;;;;-143.48;94.44;118439.88;5097632;28;20081;-33
2023/01/26 05:15:23;;;;;;;52.65;19.42;;;;;;;-143.48;94.93;118439.88;5097329;28;20484;-33
2023/01/26 05:17:48;;;;;;;54.03;19.95;;;;;;;-143.48;94.91;118439.88;5097271;28;20028;-32
2023/01/26 05:20:15;;;;;;;52.35;19.02;;;;;;;-143.48;95.13;118439.88;5097209;28;20379;-34
2023/01/26 05:22:40;;;;;;;59.45;20.38;;;;;;;-143.48;95.26;118439.88;5097415;28;20045;-33
2023/01/26 05:25:06;;;;;;;52.00;19.33;;;;;;;-143.48;95.11;118439.88;5097123;28;20518;-33
2023/01/26 05:27:31;;;;;;;50.80;19.30;;;;;;;-143.48;94.74;118439.88;5079295;28;20031;-33
2023/01/26 05:29:59;;;;;;;62.03;19.67;;;;;;;-143.48;95.28;118439.88;5096928;28;20063;-32
2023/01/26 05:32:29;;;;;;;63.38;20.10;;;;;;;-143.48;94.80;118439.88;5078823;28;20032;-33
2023/01/26 05:34:54;;;;;;;73.47;21.08;;;;;;;-143.48;94.60;118439.88;5097735;28;20020;-33
2023/01/26 05:37:20;;;;;;;63.85;21.10;;;;;;;-143.48;94.29;118439.88;5078602;28;20432;-33
2023/01/26 05:39:45;;;;;;;62.97;20.65;;;;;;;-143.48;94.51;118439.88;5096853;28;20027;-33
2023/01/26 05:42:12;;;;;;;58.83;20.60;;;;;;;-143.48;94.67;118439.88;5097118;28;20027;-33
2023/01/26 05:44:37;;;;;;;61.28;20.63;;;;;;;-143.48;94.62;118439.88;5097007;28;20073;-32
2023/01/26 05:47:09;;;;;;;57.30;19.45;;;;;;;-143.48;94.69;118439.88;5096912;28;20454;-33
2023/01/26 05:49:41;;;;;;;53.45;18.80;;;;;;;-143.48;95.09;118439.88;5096969;28;20374;-34
2023/01/26 05:52:09;;;;;;;56.35;19.17;;;;;;;-143.48;95.34;118439.88;5078432;28;20047;-34
2023/01/26 05:54:35;;;;;;;50.78;19.15;;;;;;;-143.48;95.18;118439.88;5079237;28;20032;-34
2023/01/26 05:57:01;;;;;;;51.17;18.80;;;;;;;-143.48;95.20;118439.88;5078508;28;20028;-33
2023/01/26 05:59:26;;;;;;;51.45;18.60;;;;;;;-143.48;94.97;118439.88;5096459;28;20020;-33
2023/01/26 06:01:52;;;;;;;53.67;19.42;;;;;;;-143.48;94.92;118439.88;5096411;28;20024;-34
2023/01/26 06:04:18;;;;;;;47.47;18.25;;;;;;;-143.48;94.72;118439.88;5096319;28;20421;-34
2023/01/26 06:06:43;;;;;;;58.70;19.48;;;;;;;-143.48;94.35;118439.88;5096192;28;20058;-33
2023/01/26 06:09:09;;;;;;;53.28;18.42;;;;;;;-143.48;94.94;118439.88;5096564;28;20459;-33
2023/01/26 06:11:35;;;;;;;49.63;17.90;;;;;;;-143.48;94.79;118439.88;5096177;28;20074;-33
2023/01/26 06:14:00;;;;;;;53.30;18.67;;;;;;;-143.48;94.90;118439.88;5096049;28;20085;-33
2023/01/26 06:16:25;;;;;;;52.92;18.25;;;;;;;-143.48;94.95;118439.88;5095831;28;20020;-33
2023/01/26 06:18:51;;;;;;;58.00;19.05;;;;;;;-143.48;95.03;118439.88;5094767;28;20103;-33
2023/01/26 06:21:16;;;;;;;52.92;19.00;;;;;;;-143.48;95.11;118439.88;5078307;28;20024;-33
2023/01/26 06:23:41;;;;;;;57.00;19.60;;;;;;;-143.48;94.93;118439.88;5095028;28;20452;-34
2023/01/26 06:26:07;;;;;;;53.25;18.95;;;;;;;-143.48;95.54;118439.88;5095905;28;20024;-33
2023/01/26 06:28:32;;;;;;;54.78;19.15;;;;;;;-143.48;95.49;118439.88;5095872;28;20031;-33
2023/01/26 06:31:05;;;;;;;48.10;17.85;;;;;;;-143.48;95.00;118439.88;5095665;28;20031;-33
2023/01/26 06:33:35;;;;;;;53.40;17.13;;;;;;;-143.48;95.05;118439.88;5094818;28;20045;-33
2023/01/26 06:36:05;;;;;;;58.45;18.70;;;;;;;-143.48;95.31;118439.88;5095671;28;20531;-33
2023/01/26 06:38:31;;;;;;;48.08;17.25;;;;;;;-143.48;95.18;118439.88;5095643;28;20066;-32
2023/01/26 06:41:05;;;;;;;59.63;18.52;;;;;;;-143.48;95.41;118439.88;5095863;28;20043;-33
2023/01/26 06:43:32;;;;;;;59.22;18.50;;;;;;;-143.48;95.21;118439.88;5095751;28;20024;-33
2023/01/26 06:45:58;;;;;;;51.40;18.15;;;;;;;-143.48;94.98;118439.88;5095859;28;20458;-33
2023/01/26 06:48:24;;;;;;;57.63;18.60;;;;;;;-143.48;94.95;118439.88;5095633;28;20031;-33
2023/01/26 06:50:50;;;;;;;64.43;20.55;;;;;;;-143.48;95.61;118439.88;5095224;28;20032;-33
2023/01/26 06:53:51;;;;;;;96.70;19.38;;;;;;;-143.48;95.37;118439.88;5095766;28;20374;-33
2023/01/26 06:56:16;;;;;;;82.57;19.85;;;;;;;-143.48;95.63;118439.88;5057333;28;20047;-33
2023/01/26 06:58:42;;;;;;;102.25;19.75;;;;;;;-143.48;95.73;118439.88;5076987;28;20016;-33
2023/01/26 07:01:13;;;;;;;81.78;18.15;;;;;;;-143.48;95.75;118439.88;5095283;28;20024;-33
2023/01/26 07:03:38;;;;;;;114.70;21.08;;;;;;;-143.48;96.09;118439.88;5095314;28;20524;-33
2023/01/26 07:06:04;;;;;;;99.70;19.73;;;;;;;-143.48;96.21;118439.88;5094825;28;20048;-33
2023/01/26 07:08:30;;;;;;;71.45;19.02;;;;;;;-143.48;96.50;118439.88;5095375;28;20081;-33
2023/01/26 07:10:55;;;;;;;97.38;20.25;;;;;;;-143.48;96.30;118439.88;5095206;28;20024;-34
2023/01/26 07:13:20;;;;;;;82.80;19.50;;;;;;;-143.48;96.41;118439.88;5095212;28;20027;-33
2023/01/26 07:15:46;;;;;;;67.60;18.50;;;;;;;-143.48;96.38;118439.88;5095233;28;20102;-33
2023/01/26 07:18:11;;;;;;;69.68;19.48;;;;;;;-143.48;96.16;118439.88;5094774;28;20405;-33
2023/01/26 07:20:36;;;;;;;66.10;19.40;;;;;;;-143.48;96.18;118439.88;5095628;28;20061;-33
2023/01/26 07:23:02;;;;;;;64.50;18.95;;;;;;;-143.48;96.34;118439.88;5095012;28;20020;-37
2023/01/26 07:25:27;;;;;;;58.30;18.30;;;;;;;-143.48;95.55;118439.88;5094721;28;20463;-34
2023/01/26 07:27:57;;;;;;;55.83;17.67;;;;;;;-143.48;96.03;118439.88;5094539;28;20060;-33
2023/01/26 07:30:22;;;;;;;60.92;18.77;;;;;;;-143.48;96.24;118439.88;5094773;28;20019;-33
2023/01/26 07:32:47;;;;;;;52.00;16.67;;;;;;;-143.48;96.62;118439.88;5094977;28;20043;-33
2023/01/26 07:35:13;;;;;;;47.20;15.77;;;;;;;-143.48;96.88;118439.88;5094509;28;20027;-34
2023/01/26 07:37:38;;;;;;;47.22;15.73;;;;;;;-143.48;96.91;118439.88;5094493;28;20370;-33
2023/01/26 07:40:04;;;;;;;53.17;16.52;;;;;;;-143.48;96.67;118439.88;5094507;28;20057;-33
2023/01/26 07:42:30;;;;;;;52.25;16.40;;;;;;;-143.48;96.57;118439.88;5075875;28;20385;-33
2023/01/26 07:44:55;;;;;;;44.90;15.57;;;;;;;-143.48;96.96;118439.88;5094161;28;20028;-33
2023/01/26 07:47:20;;;;;;;46.70;15.38;;;;;;;-143.48;96.70;118439.88;5094438;28;20028;-32
2023/01/26 07:49:46;;;;;;;49.45;15.20;;;;;;;-143.48;96.68;118439.88;5093972;28;20058;-33
2023/01/26 07:52:11;;;;;;;43.78;14.85;;;;;;;-143.48;96.67;118439.88;5094212;28;20051;-33
2023/01/26 07:54:37;;;;;;;49.55;14.82;;;;;;;-143.48;96.87;118439.88;5093969;28;20024;-33
2023/01/26 07:57:05;;;;;;;48.40;14.98;;;;;;;-143.48;96.57;118439.88;5093851;28;20029;-34
2023/01/26 07:59:31;;;;;;;42.92;13.55;;;;;;;-143.48;96.43;118439.88;5075476;28;20526;-34
2023/01/26 08:01:56;;;;;;;52.13;13.63;;;;;;;-143.48;95.93;118439.88;5093840;28;20055;-33
2023/01/26 08:04:21;;;;;;;41.03;12.80;;;;;;;-143.48;95.74;118439.88;5093976;28;20027;-34
2023/01/26 08:06:50;;;;;;;45.10;12.35;;;;;;;-143.48;96.03;118439.88;5093573;28;20066;-34
2023/01/26 08:09:15;;;;;;;44.08;12.55;;;;;;;-143.48;96.16;118439.88;5094410;28;20032;-34
2023/01/26 08:11:41;;;;;;;36.88;11.13;;;;;;;-143.48;96.22;118439.88;5093833;28;20483;-33
2023/01/26 08:14:06;;;;;;;41.33;10.60;;;;;;;-143.48;96.01;118439.88;5094201;28;20028;-33
2023/01/26 08:16:31;;;;;;;37.40;10.25;;;;;;;-143.48;95.71;118439.88;5093530;28;20106;-33
2023/01/26 08:18:57;;;;;;;33.38;8.77;;;;;;;-143.48;96.02;118439.88;5093890;28;20379;-33
2023/01/26 08:21:22;;;;;;;34.97;8.55;;;;;;;-143.48;96.08;118439.88;5093592;28;20455;-34
2023/01/26 08:23:51;;;;;;;26.98;7.22;;;;;;;-143.48;96.26;118439.88;5093738;28;20016;-34
2023/01/26 08:26:18;;;;;;;25.92;6.68;;;;;;;-143.48;96.37;118439.88;5093796;28;20032;-34
2023/01/26 08:28:44;;;;;;;33.97;5.57;;;;;;;-143.48;96.22;118439.88;5093959;28;20081;-33
2023/01/26 08:31:17;;;;;;;36.10;5.40;;;;;;;-143.48;96.61;118439.88;5093592;28;20111;-34
2023/01/26 08:33:43;;;;;;;23.33;4.00;;;;;;;-143.48;97.60;118439.88;5093761;28;20351;-33
2023/01/26 08:36:11;;;;;;;35.00;4.22;;;;;;;-143.48;96.88;118439.88;5093620;28;20035;-34
2023/01/26 08:38:36;;;;;;;24.30;4.35;;;;;;;-143.48;97.10;118439.88;5094183;28;20512;-34
2023/01/26 08:41:02;;;;;;;32.80;5.22;;;;;;;-143.48;96.65;118439.88;5093826;28;20028;-33
2023/01/26 08:43:28;;;;;;;22.88;4.30;;;;;;;-143.48;96.82;118439.88;5093949;28;20036;-34
2023/01/26 08:45:54;;;;;;;34.28;5.35;;;;;;;-143.48;96.08;118439.88;5092985;28;20107;-34
2023/01/26 08:48:20;;;;;;;26.27;3.60;;;;;;;-143.48;95.72;118439.88;5093741;28;20028;-34
2023/01/26 08:50:45;;;;;;;36.28;4.65;;;;;;;-143.48;95.11;118439.88;5093406;28;20103;-34
2023/01/26 08:53:11;;;;;;;22.25;3.88;;;;;;;-143.48;95.54;118439.88;5093352;28;20032;-34
2023/01/26 08:55:36;;;;;;;25.05;3.22;;;;;;;-143.48;95.06;118439.88;5075073;28;20020;-34
2023/01/26 08:58:02;;;;;;;29.92;3.42;;;;;;;-143.48;94.62;118439.88;5093502;28;20074;-34
2023/01/26 09:00:30;;;;;;;27.83;4.47;;;;;;;-143.48;94.81;118439.88;5093257;28;20382;-35
2023/01/26 09:03:00;;;;;;;18.75;2.80;;;;;;;-143.48;95.11;118439.88;5058685;28;20028;-34
2023/01/26 09:05:26;;;;;;;40.17;3.33;;;;;;;-143.48;94.90;118439.88;5093287;28;20086;-33
2023/01/26 09:07:52;;;;;;;27.38;4.03;;;;;;;-143.48;95.81;118439.88;5093210;28;20051;-34
2023/01/26 09:10:17;;;;;;;33.17;3.58;;;;;;;-143.48;94.86;118439.88;5092871;28;20066;-34
2023/01/26 09:12:42;;;;;;;31.17;3.55;;;;;;;-143.48;93.83;118439.88;5093130;28;20378;-33
2023/01/26 09:15:08;;;;;;;27.92;3.13;;;;;;;-143.48;93.45;118439.88;5093006;28;20024;-34
2023/01/26 09:17:33;;;;;;;27.40;3.65;;;;;;;-143.48;93.63;118439.88;5093243;28;20091;-34
2023/01/26 09:19:59;;;;;;;21.50;2.88;;;;;;;-143.48;93.49;118439.88;5093029;28;20031;-33
2023/01/26 09:22:24;;;;;;;24.25;3.05;;;;;;;-143.48;94.15;118439.88;5074967;28;20031;-33
2023/01/26 09:24:49;;;;;;;31.83;3.50;;;;;;;-143.48;93.82;118439.88;5092792;28;20027;-34
2023/01/26 09:27:15;;;;;;;26.90;2.42;;;;;;;-143.48;94.17;118439.88;5093068;28;20020;-33
2023/01/26 09:29:40;;;;;;;23.48;2.90;;;;;;;-143.48;93.20;118439.88;5092749;28;20475;-37
2023/01/26 09:32:05;;;;;;;30.98;3.45;;;;;;;-143.48;92.95;118439.88;5092892;28;20108;-34
2023/01/26 09:34:31;;;;;;;23.27;2.47;;;;;;;-143.48;92.65;118439.88;5092221;28;20046;-34
2023/01/26 09:36:56;;;;;;;22.60;3.22;;;;;;;-143.48;92.25;118439.88;5092442;28;20027;-34
2023/01/26 09:39:21;;;;;;;25.20;3.58;;;;;;;-143.48;92.56;118439.88;5073893;28;20020;-34
2023/01/26 09:42:05;;;;;;;28.48;3.30;;;;;;;-143.48;92.16;118439.88;5092298;28;20027;-34
2023/01/26 09:44:39;;;;;;;28.58;4.47;;;;;;;-143.48;92.17;118439.88;5092178;28;20031;-34
2023/01/26 09:47:15;;;;;;;27.98;3.08;;;;;;;-143.48;91.64;118439.88;5092495;28;20043;-34
2023/01/26 09:50:05;;;;;;;22.88;3.47;;;;;;;-143.48;90.87;118439.88;5092049;28;20031;-34
2023/01/26 09:52:51;;;;;;;25.65;3.65;;;;;;;-143.48;90.47;118439.88;5092955;28;20074;-34
2023/01/26 09:55:19;;;;;;;19.00;3.03;;;;;;;-143.48;88.75;118439.88;5057990;28;20028;-34
2023/01/26 09:58:02;;;;;;;27.98;3.42;;;;;;;-143.48;88.15;118439.88;5093414;28;20053;-34
2023/01/26 10:00:56;;;;;;;24.10;2.97;;;;;;;-143.48;88.46;118439.88;5096169;28;20054;-33
2023/01/26 10:03:30;;;;;;;26.42;3.13;;;;;;;-143.48;88.12;118439.88;5096131;28;20331;-34
2023/01/26 10:05:56;;;;;;;21.95;3.63;;;;;;;-143.48;85.13;118439.88;5095894;28;20433;-33
2023/01/26 10:08:25;;;;;;;20.33;3.17;;;;;;;-143.48;76.25;118439.88;5096308;28;20031;-34
2023/01/26 10:11:00;;;;;;;37.40;3.78;;;;;;;-143.48;71.84;118439.88;5096252;28;20463;-33
2023/01/26 10:13:28;;;;;;;31.30;4.03;;;;;;;-143.48;59.89;118439.88;5095882;28;20024;-33
2023/01/26 10:16:08;;;;;;;17.30;3.40;;;;;;;-143.48;54.71;118439.88;5095913;28;20028;-34
2023/01/26 10:18:45;;;;;;;22.13;3.90;;;;;;;-143.48;52.68;118439.88;5096170;28;20020;-34
2023/01/26 10:21:11;;;;;;;28.25;4.40;;;;;;;-143.48;53.66;118439.88;5096095;28;20107;-34
2023/01/26 10:23:46;;;;;;;23.63;4.40;;;;;;;-143.48;51.61;118439.88;5095978;28;20106;-34
2023/01/26 10:26:22;;;;;;;20.33;3.50;;;;;;;-143.48;51.55;118439.88;5095639;28;20020;-34
2023/01/26 10:28:50;;;;;;;23.92;4.22;;;;;;;-143.48;49.51;118439.88;5096081;28;20026;-34
2023/01/26 10:31:21;;;;;;;20.15;4.00;;;;;;;-143.48;47.44;118439.88;5095998;28;20024;-34
2023/01/26 10:33:54;;;;;;;23.67;5.13;;;;;;;-143.48;47.64;118439.88;5096061;28;20144;-34
2023/01/26 10:36:20;;;;;;;22.65;4.68;;;;;;;-143.48;47.71;118439.88;5095705;28;20019;-34
2023/01/26 10:38:49;;;;;;;22.35;4.20;;;;;;;-143.48;46.16;118439.88;5095224;28;20051;-33
2023/01/26 10:41:17;;;;;;;24.83;4.53;;;;;;;-143.48;45.13;118439.88;5094627;28;20050;-34
2023/01/26 10:43:53;;;;;;;24.83;4.50;;;;;;;-143.48;44.29;118439.88;5094574;28;20059;-34
2023/01/26 10:46:38;;;;;;;18.23;4.13;;;;;;;-143.48;55.92;118439.88;5076860;28;20511;-34
2023/01/26 10:49:06;;;;;;;26.40;4.05;;;;;;;-143.48;59.57;118439.88;5095163;28;20054;-34
2023/01/26 10:51:34;;;;;;;19.98;4.00;;;;;;;-143.48;45.57;118439.88;5094947;28;20028;-35
2023/01/26 10:54:24;;;;;;;21.65;3.78;;;;;;;-143.48;45.07;118439.88;5077083;28;20047;-34
2023/01/26 10:57:17;;;;;;;20.23;4.00;;;;;;;-143.48;49.77;118439.88;5095340;28;20036;-34
2023/01/26 11:00:00;;;;;;;19.77;3.97;;;;;;;-143.48;55.63;118439.88;5086286;28;20036;-34
2023/01/26 11:02:28;;;;;;;24.13;5.53;;;;;;;-143.48;49.82;118439.88;5094652;28;20031;-34
2023/01/26 11:05:08;;;;;;;21.33;3.67;;;;;;;-143.48;48.96;118439.88;5094379;28;20016;-33
2023/01/26 11:07:39;;;;;;;21.08;4.15;;;;;;;-143.48;56.77;118439.88;5093287;28;20454;-33
2023/01/26 11:10:23;;;;;;;26.92;3.95;;;;;;;-143.48;64.84;118439.88;5094411;28;20481;-34
2023/01/26 11:12:49;;;;;;;22.48;4.18;;;;;;;-143.48;65.20;118439.88;5095119;28;20074;-34
2023/01/26 11:15:23;;;;;;;25.67;3.65;;;;;;;-143.48;63.53;118439.88;5095138;28;20024;-34
2023/01/26 11:17:58;;;;;;;18.20;3.40;;;;;;;-143.48;60.54;118439.88;5095056;28;20077;-36
2023/01/26 11:20:48;;;;;;;21.42;3.13;;;;;;;-143.48;60.23;118439.88;5094803;28;20644;-34
2023/01/26 11:23:21;;;;;;;19.92;3.40;;;;;;;-143.48;52.97;118439.88;5094819;28;20459;-34
2023/01/26 11:26:16;;;;;;;19.83;3.33;;;;;;;-143.48;49.01;118439.88;5094751;28;20454;-34
2023/01/26 11:29:09;;;;;;;21.27;3.28;;;;;;;-143.48;54.20;118439.88;5094871;28;20020;-34
2023/01/26 11:31:56;;;;;;;22.75;3.80;;;;;;;-143.48;54.03;118439.88;5094490;28;20127;-34
2023/01/26 11:34:39;;;;;;;25.48;3.70;;;;;;;-143.48;53.15;118439.88;5094414;28;20364;-34
2023/01/26 11:37:22;;;;;;;;;;;;;;;-143.48;50.83;118439.88;5094806;28;20051;-34
2023/01/26 11:40:24;;;;;;;21.45;3.35;;;;;;;-143.48;53.75;118439.88;5094026;28;19908;-34
2023/01/26 11:43:35;;;;;;;25.30;4.15;;;;;;;-143.48;54.36;118439.88;5094342;28;20111;-34
2023/01/26 11:46:24;;;;;;;23.90;3.70;;;;;;;-143.48;64.26;118439.88;5028801;28;20123;-34
2023/01/26 11:48:52;;;;;;;23.15;3.72;;;;;;;-143.48;65.69;118439.88;5076288;28;20028;-34
2023/01/26 11:51:26;;;;;;;26.00;3.70;;;;;;;-143.48;69.57;118439.88;5094282;28;20509;-35